Time;durP1;ratioP1;P1;durP2;ratioP2;P2;SDS_P1;SDS_P2;PMS_P1;PMS_P2;Temp;Humidity;BMP_temperature;BMP_pressure;BME280_temperature;BME280_humidity;BME280_pressure;Samples;Min_cycle;Max_cycle;Signal;HPM_P1;HPM_P2
2023/08/29 00:02:08;;;;;;;14.90;9.43;;;;;;;16.49;77.03;99449.06;5085799;28;20249;-74
2023/08/29 00:04:33;;;;;;;14.25;9.18;;;;;;;16.47;77.00;99442.25;5088674;28;20032;-81
2023/08/29 00:06:58;;;;;;;12.53;7.93;;;;;;;16.46;77.26;99435.91;5090493;28;20098;-81
2023/08/29 00:09:23;;;;;;;16.03;9.13;;;;;;;16.39;77.33;99430.88;5091758;28;20259;-81
2023/08/29 00:11:49;;;;;;;15.83;8.93;;;;;;;16.43;77.29;99417.31;5093771;28;20890;-81
2023/08/29 00:14:14;;;;;;;14.35;9.65;;;;;;;16.47;76.81;99420.22;5092042;28;20276;-81
2023/08/29 00:16:39;;;;;;;13.60;9.23;;;;;;;16.48;76.97;99430.09;5093390;28;20386;-82
2023/08/29 00:19:05;;;;;;;13.57;10.32;;;;;;;16.41;76.86;99422.31;5091355;28;20416;-82
2023/08/29 00:21:31;;;;;;;14.07;9.75;;;;;;;16.36;76.99;99406.72;5092149;28;20059;-82
2023/08/29 00:23:56;;;;;;;15.38;9.20;;;;;;;16.31;77.03;99415.13;5091112;28;20032;-81
2023/08/29 00:26:21;;;;;;;16.80;11.38;;;;;;;16.30;77.65;99414.28;5090497;28;20028;-83
2023/08/29 00:28:47;;;;;;;13.85;10.70;;;;;;;16.28;76.78;99412.97;5087379;28;20688;-83
2023/08/29 00:31:12;;;;;;;15.27;10.60;;;;;;;16.28;77.22;99412.97;5088912;28;20024;-81
2023/08/29 00:33:38;;;;;;;17.80;9.77;;;;;;;16.28;77.30;99426.72;5090580;28;20058;-81
2023/08/29 00:36:03;;;;;;;14.68;10.57;;;;;;;16.33;77.04;99421.13;5090966;28;20040;-81
2023/08/29 00:38:28;;;;;;;16.92;10.65;;;;;;;16.31;76.66;99426.13;5089924;28;20040;-81
2023/08/29 00:40:53;;;;;;;14.13;10.23;;;;;;;16.30;77.31;99428.03;5086703;28;20034;-81
2023/08/29 00:43:19;;;;;;;15.50;10.87;;;;;;;16.35;76.86;99427.13;5091339;28;20775;-81
2023/08/29 00:45:44;;;;;;;15.20;10.90;;;;;;;16.25;77.11;99433.66;5091834;28;20261;-80
2023/08/29 00:48:12;;;;;;;18.08;10.98;;;;;;;16.24;76.96;99434.78;5091626;28;20264;-82
2023/08/29 00:50:37;;;;;;;16.52;10.98;;;;;;;16.27;77.20;99441.63;5093432;28;20111;-81
2023/08/29 00:53:05;;;;;;;17.20;10.80;;;;;;;16.28;76.86;99446.78;5093498;28;20115;-83
2023/08/29 00:55:33;;;;;;;16.15;10.52;;;;;;;16.20;77.25;99440.09;5092723;28;20028;-82
2023/08/29 00:57:59;;;;;;;17.05;10.85;;;;;;;16.11;77.24;99441.94;5093845;28;20682;-81
2023/08/29 01:00:30;;;;;;;15.15;9.93;;;;;;;16.06;77.44;99431.09;5093513;28;20110;-81
2023/08/29 01:02:56;;;;;;;17.02;12.20;;;;;;;16.08;77.40;99423.34;5092080;28;20047;-81
2023/08/29 01:05:21;;;;;;;15.25;10.75;;;;;;;16.08;77.61;99428.84;5092485;28;20028;-81
2023/08/29 01:07:48;;;;;;;19.20;11.60;;;;;;;16.08;77.20;99432.41;5092379;28;20067;-83
2023/08/29 01:10:14;;;;;;;18.83;11.05;;;;;;;16.06;76.89;99442.06;5091808;28;20060;-79
2023/08/29 01:13:15;;;;;;;18.20;11.57;;;;;;;15.92;76.90;99429.16;5091190;28;20063;-74
2023/08/29 01:15:43;;;;;;;15.23;10.52;;;;;;;15.92;78.03;99417.34;5088001;28;20027;-73
2023/08/29 01:18:12;;;;;;;16.70;11.38;;;;;;;16.03;77.61;99418.75;5088091;28;20032;-73
2023/08/29 01:20:39;;;;;;;15.43;10.52;;;;;;;16.07;77.07;99427.19;5086650;28;20024;-73
2023/08/29 01:23:18;;;;;;;20.42;13.80;;;;;;;15.99;76.98;99435.03;5086774;28;20479;-73
2023/08/29 01:26:00;;;;;;;14.93;10.93;;;;;;;15.96;77.42;99429.34;5087332;28;20458;-73
2023/08/29 01:28:26;;;;;;;14.93;9.55;;;;;;;15.91;77.38;99429.44;5087868;28;20043;-73
2023/08/29 01:30:52;;;;;;;20.10;11.48;;;;;;;15.93;77.61;99438.19;5087067;28;21073;-73
2023/08/29 01:33:19;;;;;;;17.08;10.00;;;;;;;15.94;77.63;99440.66;5086939;28;20059;-73
2023/08/29 01:35:46;;;;;;;18.27;11.95;;;;;;;15.93;77.94;99450.03;5086325;28;20036;-74
2023/08/29 01:38:11;;;;;;;18.98;11.65;;;;;;;15.94;77.74;99457.16;5085637;28;20036;-74
2023/08/29 01:40:37;;;;;;;18.50;11.77;;;;;;;15.96;77.62;99465.91;5084997;28;20039;-73
2023/08/29 01:43:03;;;;;;;17.25;11.63;;;;;;;15.95;77.63;99479.94;5086241;28;20043;-73
2023/08/29 01:45:28;;;;;;;21.73;12.90;;;;;;;15.95;77.85;99471.69;5086603;28;20390;-73
2023/08/29 01:47:53;;;;;;;21.87;12.10;;;;;;;15.95;77.86;99464.25;5087652;28;20031;-74
2023/08/29 01:50:20;;;;;;;17.05;12.52;;;;;;;15.96;77.90;99467.84;5087790;28;20249;-73
2023/08/29 01:52:47;;;;;;;20.27;12.88;;;;;;;15.95;77.59;99475.25;5087107;28;20032;-74
2023/08/29 01:55:12;;;;;;;18.52;11.63;;;;;;;15.87;78.02;99482.31;5086516;28;20028;-73
2023/08/29 01:57:39;;;;;;;17.27;11.90;;;;;;;15.89;77.83;99482.00;5087667;28;20085;-73
2023/08/29 02:00:05;;;;;;;20.05;13.43;;;;;;;15.89;77.82;99487.50;5087316;28;20032;-73
2023/08/29 02:02:30;;;;;;;20.05;13.65;;;;;;;15.83;78.45;99488.72;5087920;28;20032;-73
2023/08/29 02:04:56;;;;;;;20.35;14.35;;;;;;;15.88;78.31;99485.88;5088130;28;20038;-73
2023/08/29 02:07:21;;;;;;;17.35;12.88;;;;;;;15.91;78.70;99485.25;5087241;28;20052;-73
2023/08/29 02:09:46;;;;;;;18.48;13.05;;;;;;;15.95;78.46;99490.94;5087921;28;20036;-73
2023/08/29 02:12:12;;;;;;;24.10;14.95;;;;;;;15.92;77.95;99486.88;5088038;28;20054;-74
2023/08/29 02:14:37;;;;;;;18.88;13.40;;;;;;;15.94;78.70;99486.56;5087913;28;20036;-73
2023/08/29 02:17:03;;;;;;;19.47;13.40;;;;;;;16.01;78.43;99486.16;5087213;28;20077;-73
2023/08/29 02:19:28;;;;;;;21.75;13.50;;;;;;;16.04;78.32;99493.81;5087796;28;20272;-73
2023/08/29 02:21:54;;;;;;;21.42;13.90;;;;;;;16.05;78.58;99492.72;5087969;28;20032;-74
2023/08/29 02:24:19;;;;;;;19.58;12.80;;;;;;;16.07;78.88;99490.44;5088232;28;20056;-73
2023/08/29 02:26:44;;;;;;;20.93;13.47;;;;;;;16.13;78.98;99488.41;5087373;28;20038;-74
2023/08/29 02:29:10;;;;;;;21.17;12.93;;;;;;;16.14;78.85;99492.78;5087297;28;20261;-73
2023/08/29 02:31:35;;;;;;;21.53;13.63;;;;;;;16.16;78.60;99496.84;5086292;28;20264;-73
2023/08/29 02:34:00;;;;;;;17.92;13.82;;;;;;;16.17;78.27;99489.41;5085340;28;20310;-73
2023/08/29 02:36:26;;;;;;;23.83;14.60;;;;;;;16.13;77.91;99483.69;5087049;28;20085;-73
2023/08/29 02:38:53;;;;;;;21.65;14.40;;;;;;;16.06;77.95;99488.81;5086981;27;20031;-74
2023/08/29 02:41:18;;;;;;;22.08;15.23;;;;;;;16.07;78.23;99488.50;5087079;28;20059;-74
2023/08/29 02:43:43;;;;;;;20.42;15.48;;;;;;;16.09;77.75;99488.19;5085401;28;20040;-77
2023/08/29 02:46:09;;;;;;;19.43;13.27;;;;;;;16.05;78.03;99485.25;5085387;28;20034;-74
2023/08/29 02:48:34;;;;;;;22.35;15.35;;;;;;;15.98;77.97;99484.84;5084757;28;20287;-73
2023/08/29 02:50:59;;;;;;;20.33;14.80;;;;;;;15.98;77.78;99482.91;5083215;28;20104;-73
2023/08/29 02:53:25;;;;;;;21.65;15.00;;;;;;;15.95;78.06;99478.00;5083485;28;20169;-75
2023/08/29 02:55:52;;;;;;;20.93;14.10;;;;;;;15.94;78.11;99470.06;5085127;28;20036;-74
2023/08/29 02:58:17;;;;;;;20.60;14.30;;;;;;;15.92;78.28;99472.31;5086369;28;20735;-73
2023/08/29 03:00:42;;;;;;;23.75;14.57;;;;;;;15.94;78.50;99468.16;5086553;28;20073;-73
2023/08/29 03:03:08;;;;;;;18.90;13.37;;;;;;;15.92;78.12;99470.41;5086446;28;20043;-74
2023/08/29 03:05:33;;;;;;;21.02;14.18;;;;;;;15.92;78.65;99464.91;5085455;28;20273;-74
2023/08/29 03:08:02;;;;;;;25.38;16.60;;;;;;;15.91;78.07;99457.75;5085253;28;20071;-76
2023/08/29 03:10:28;;;;;;;20.50;14.73;;;;;;;15.87;78.07;99457.56;5085496;28;20051;-74
2023/08/29 03:12:53;;;;;;;23.70;14.33;;;;;;;15.88;78.37;99458.38;5085069;28;20484;-75
2023/08/29 03:15:18;;;;;;;19.10;13.07;;;;;;;15.85;77.69;99453.50;5084173;28;20285;-74
2023/08/29 03:17:44;;;;;;;21.00;13.43;;;;;;;15.80;77.77;99448.94;5085552;28;20720;-73
2023/08/29 03:20:10;;;;;;;24.42;13.68;;;;;;;15.73;77.61;99449.34;5086033;28;20032;-73
2023/08/29 03:22:36;;;;;;;21.17;13.27;;;;;;;15.66;77.77;99443.47;5086149;28;20629;-73
2023/08/29 03:25:01;;;;;;;22.15;14.40;;;;;;;15.60;78.05;99437.25;5085593;28;20063;-74
2023/08/29 03:27:27;;;;;;;19.17;14.70;;;;;;;15.48;78.08;99435.00;5086519;28;20040;-73
2023/08/29 03:29:52;;;;;;;22.67;14.55;;;;;;;15.49;78.15;99431.16;5083911;28;20063;-75
2023/08/29 03:32:18;;;;;;;21.25;14.43;;;;;;;15.52;78.39;99424.22;5086469;28;20024;-73
2023/08/29 03:34:43;;;;;;;21.23;15.43;;;;;;;15.54;78.39;99421.97;5085491;28;20489;-73
2023/08/29 03:37:08;;;;;;;22.77;16.43;;;;;;;15.57;78.50;99412.31;5085624;28;20110;-73
2023/08/29 03:39:33;;;;;;;25.43;16.30;;;;;;;15.56;78.35;99413.44;5084628;28;20330;-73
2023/08/29 03:41:59;;;;;;;31.17;16.43;;;;;;;15.58;79.00;99405.72;5085927;28;20789;-74
2023/08/29 03:44:24;;;;;;;23.47;15.63;;;;;;;15.62;79.09;99406.72;5088033;28;20321;-73
2023/08/29 03:46:49;;;;;;;28.07;16.00;;;;;;;15.64;78.75;99397.03;5090064;28;20259;-74
2023/08/29 03:49:15;;;;;;;21.75;14.55;;;;;;;15.64;78.49;99401.75;5090073;28;20257;-73
2023/08/29 03:51:40;;;;;;;18.92;14.05;;;;;;;15.63;79.33;99402.84;5090149;28;20102;-72
2023/08/29 03:54:05;;;;;;;21.67;14.07;;;;;;;15.63;79.03;99400.91;5089670;28;20081;-74
2023/08/29 03:56:31;;;;;;;24.83;14.18;;;;;;;15.64;78.99;99399.00;5089131;28;20792;-74
2023/08/29 03:58:57;;;;;;;22.05;15.32;;;;;;;15.64;78.71;99404.50;5090072;28;20024;-75
2023/08/29 04:01:22;;;;;;;24.97;15.17;;;;;;;15.62;78.79;99406.72;5090088;28;20469;-74
2023/08/29 04:03:47;;;;;;;23.52;16.35;;;;;;;15.62;78.61;99403.97;5088142;28;20263;-73
2023/08/29 04:06:14;;;;;;;20.42;14.43;;;;;;;15.61;78.46;99410.59;5089245;28;20876;-73
2023/08/29 04:08:39;;;;;;;22.70;14.88;;;;;;;15.60;78.12;99417.22;5089270;28;20074;-74
2023/08/29 04:11:04;;;;;;;19.50;15.30;;;;;;;15.57;78.09;99412.31;5089817;28;20047;-74
2023/08/29 04:13:30;;;;;;;24.85;16.50;;;;;;;15.54;78.09;99405.50;5088049;28;20252;-73
2023/08/29 04:16:00;;;;;;;26.90;16.45;;;;;;;15.48;78.32;99409.47;5086142;28;20586;-74
2023/08/29 04:18:26;;;;;;;24.35;14.90;;;;;;;15.44;78.08;99409.28;5089866;28;20414;-73
2023/08/29 04:20:51;;;;;;;20.23;15.40;;;;;;;15.38;78.25;99410.50;5088641;28;20035;-72
2023/08/29 04:23:16;;;;;;;21.88;15.18;;;;;;;15.38;78.30;99407.75;5088923;28;20252;-73
2023/08/29 04:25:42;;;;;;;21.50;15.18;;;;;;;15.43;78.23;99413.16;5089096;28;21007;-73
2023/08/29 04:28:07;;;;;;;23.80;17.70;;;;;;;15.43;78.44;99415.91;5088838;28;20032;-73
2023/08/29 04:30:33;;;;;;;25.42;18.05;;;;;;;15.48;78.56;99412.22;5088804;28;20261;-73
2023/08/29 04:32:59;;;;;;;28.33;17.67;;;;;;;15.48;78.21;99409.47;5089266;28;20489;-72
2023/08/29 04:35:25;;;;;;;23.30;16.70;;;;;;;15.40;78.80;99411.00;5088746;28;20699;-72
2023/08/29 04:37:50;;;;;;;28.48;18.75;;;;;;;15.40;78.60;99413.75;5089094;28;20044;-76
2023/08/29 04:40:17;;;;;;;25.92;17.25;;;;;;;15.43;78.69;99410.41;5088897;28;20031;-73
2023/08/29 04:42:43;;;;;;;26.77;17.98;;;;;;;15.36;78.94;99407.25;5089364;28;20085;-80
2023/08/29 04:45:10;;;;;;;27.08;17.25;;;;;;;15.35;78.68;99411.94;5091846;28;20040;-81
2023/08/29 04:47:35;;;;;;;29.63;19.20;;;;;;;15.32;78.46;99406.22;5092863;28;20032;-80
2023/08/29 04:50:01;;;;;;;25.73;17.97;;;;;;;15.26;78.74;99395.34;5092199;28;20039;-80
2023/08/29 04:52:27;;;;;;;25.02;17.38;;;;;;;15.22;78.57;99399.81;5092181;28;20743;-82
2023/08/29 04:54:53;;;;;;;27.83;19.00;;;;;;;15.19;78.60;99405.13;5090583;28;20161;-82
2023/08/29 04:57:19;;;;;;;27.42;18.98;;;;;;;15.15;79.03;99410.41;5092026;28;20481;-81
2023/08/29 04:59:44;;;;;;;32.22;19.52;;;;;;;15.14;78.84;99404.09;5091363;28;20039;-82
2023/08/29 05:02:09;;;;;;;30.17;19.25;;;;;;;15.15;78.70;99404.91;5088792;28;20598;-79
2023/08/29 05:04:35;;;;;;;29.73;19.37;;;;;;;15.15;79.02;99407.66;5086693;28;20044;-81
2023/08/29 05:07:00;;;;;;;28.15;19.05;;;;;;;15.20;79.21;99402.06;5085945;28;20279;-81
2023/08/29 05:09:25;;;;;;;29.83;19.38;;;;;;;15.24;79.44;99403.09;5087572;28;20069;-81
2023/08/29 05:11:51;;;;;;;27.35;19.55;;;;;;;15.29;79.92;99394.72;5090965;28;20024;-81
2023/08/29 05:14:16;;;;;;;33.83;21.60;;;;;;;15.35;79.88;99397.38;5090956;28;20028;-81
2023/08/29 05:16:41;;;;;;;34.05;22.13;;;;;;;15.42;79.92;99397.00;5091443;28;20366;-82
2023/08/29 05:19:07;;;;;;;29.73;20.20;;;;;;;15.50;80.46;99404.47;5091654;28;20032;-81
2023/08/29 05:21:35;;;;;;;27.10;19.35;;;;;;;15.54;80.84;99394.50;5092223;28;20032;-81
2023/08/29 05:24:02;;;;;;;31.63;21.25;;;;;;;15.58;80.51;99398.25;5091495;28;20032;-82
2023/08/29 05:26:27;;;;;;;30.88;20.90;;;;;;;15.67;80.34;99397.53;5091797;28;20648;-80
2023/08/29 05:28:52;;;;;;;30.38;21.15;;;;;;;15.66;80.38;99398.69;5091310;28;20127;-81
2023/08/29 05:31:18;;;;;;;32.07;20.90;;;;;;;15.66;80.78;99399.50;5091223;28;20036;-82
2023/08/29 05:33:43;;;;;;;29.92;19.85;;;;;;;15.76;80.48;99404.75;5090486;28;20750;-81
2023/08/29 05:36:08;;;;;;;33.15;21.60;;;;;;;15.80;80.31;99406.88;5091360;28;20089;-80
2023/08/29 05:38:33;;;;;;;29.95;21.33;;;;;;;15.84;80.63;99410.66;5092110;28;20058;-81
2023/08/29 05:40:59;;;;;;;27.67;17.37;;;;;;;15.93;80.63;99406.03;5090073;28;20066;-80
2023/08/29 05:43:24;;;;;;;22.30;15.15;;;;;;;16.05;80.30;99407.47;5090663;28;20267;-81
2023/08/29 05:45:49;;;;;;;25.38;17.67;;;;;;;16.18;79.54;99412.09;5088193;28;20038;-80
2023/08/29 05:48:15;;;;;;;29.30;17.98;;;;;;;16.22;79.19;99399.34;5091095;28;20350;-82
2023/08/29 05:50:40;;;;;;;22.90;15.63;;;;;;;16.29;78.45;99404.41;5090951;28;20066;-81
2023/08/29 05:53:06;;;;;;;22.80;15.40;;;;;;;16.33;77.99;99410.91;5089708;28;20036;-74
2023/08/29 05:55:32;;;;;;;23.42;15.93;;;;;;;16.35;77.84;99407.88;5086577;28;20115;-73
2023/08/29 05:57:57;;;;;;;30.58;18.90;;;;;;;16.32;77.92;99409.28;5086544;28;20504;-73
2023/08/29 06:00:23;;;;;;;28.08;18.48;;;;;;;16.26;78.03;99401.47;5087501;28;20654;-73
2023/08/29 06:02:51;;;;;;;28.77;18.43;;;;;;;16.26;78.71;99409.72;5088579;28;20053;-80
2023/08/29 06:05:17;;;;;;;25.17;15.90;;;;;;;16.36;78.39;99414.97;5090854;28;20257;-82
2023/08/29 06:07:43;;;;;;;32.65;17.50;;;;;;;16.40;78.58;99415.97;5088739;28;20055;-82
2023/08/29 06:10:08;;;;;;;24.50;17.58;;;;;;;16.34;79.06;99415.28;5090825;28;20042;-81
2023/08/29 06:12:34;;;;;;;25.52;17.10;;;;;;;16.40;78.90;99415.97;5090543;28;20039;-81
2023/08/29 06:14:59;;;;;;;26.52;16.35;;;;;;;16.54;78.48;99415.09;5090092;28;20036;-81
2023/08/29 06:17:24;;;;;;;20.02;14.88;;;;;;;16.60;78.48;99422.09;5089892;28;20036;-81
2023/08/29 06:19:50;;;;;;;23.65;15.80;;;;;;;16.69;77.92;99422.97;5088958;28;20032;-80
2023/08/29 06:22:15;;;;;;;23.65;15.55;;;;;;;16.73;78.13;99412.16;5085881;28;20032;-81
2023/08/29 06:24:40;;;;;;;21.97;15.17;;;;;;;16.77;77.92;99406.81;5085527;28;20050;-81
2023/08/29 06:27:06;;;;;;;22.50;14.95;;;;;;;16.81;77.61;99416.06;5087671;28;20274;-80
2023/08/29 06:29:31;;;;;;;23.50;16.23;;;;;;;16.83;77.71;99413.81;5088213;28;20389;-80
2023/08/29 06:31:56;;;;;;;27.65;16.55;;;;;;;16.89;77.49;99415.31;5089491;28;20066;-81
2023/08/29 06:34:23;;;;;;;19.80;14.80;;;;;;;16.91;77.29;99415.81;5089708;28;20118;-82
2023/08/29 06:36:48;;;;;;;23.50;15.48;;;;;;;16.95;77.11;99412.41;5091022;28;20934;-81
2023/08/29 06:39:14;;;;;;;31.43;16.33;;;;;;;16.95;77.00;99407.72;5091102;28;20039;-83
2023/08/29 06:41:39;;;;;;;21.73;14.40;;;;;;;16.98;77.38;99409.03;5090232;28;20257;-82
2023/08/29 06:44:05;;;;;;;24.80;16.33;;;;;;;16.91;77.69;99407.53;5085527;28;20765;-81
2023/08/29 06:46:30;;;;;;;19.75;13.90;;;;;;;16.87;78.13;99412.06;5085940;28;20265;-81
2023/08/29 06:48:56;;;;;;;20.90;14.20;;;;;;;16.94;77.70;99402.53;5086245;28;20040;-81
2023/08/29 06:51:21;;;;;;;21.63;14.35;;;;;;;16.99;77.49;99407.88;5083983;28;20493;-81
2023/08/29 06:53:46;;;;;;;24.55;15.70;;;;;;;17.04;77.06;99408.56;5085499;28;20036;-81
2023/08/29 06:56:12;;;;;;;22.65;15.68;;;;;;;17.06;77.01;99400.00;5084863;28;20036;-80
2023/08/29 06:58:38;;;;;;;17.60;13.23;;;;;;;17.08;77.01;99413.44;5088033;28;20465;-82
2023/08/29 07:01:03;;;;;;;21.85;14.63;;;;;;;17.09;76.88;99406.78;5087484;28;20671;-81
2023/08/29 07:03:29;;;;;;;22.13;15.45;;;;;;;17.09;76.90;99413.13;5087578;28;20070;-81
2023/08/29 07:05:54;;;;;;;19.60;13.77;;;;;;;17.12;77.13;99414.44;5086876;28;20048;-79
2023/08/29 07:08:20;;;;;;;29.83;17.58;;;;;;;17.13;77.41;99416.06;5084009;28;20529;-81
2023/08/29 07:10:45;;;;;;;23.00;15.25;;;;;;;17.10;77.18;99416.69;5083385;28;20469;-81
2023/08/29 07:13:10;;;;;;;24.33;17.17;;;;;;;17.10;77.31;99413.94;5083008;28;20473;-75
2023/08/29 07:15:36;;;;;;;26.57;15.83;;;;;;;17.03;77.97;99411.63;5081038;28;20323;-72
2023/08/29 07:18:01;;;;;;;27.40;16.77;;;;;;;17.07;77.75;99409.88;5081722;28;20299;-73
2023/08/29 07:20:28;;;;;;;25.48;16.77;;;;;;;17.04;77.92;99407.75;5082474;28;20273;-73
2023/08/29 07:22:53;;;;;;;22.58;15.80;;;;;;;17.04;78.43;99402.25;5083039;28;20035;-73
2023/08/29 07:25:19;;;;;;;25.57;16.03;;;;;;;17.00;79.15;99409.53;5081660;28;20032;-73
2023/08/29 07:27:45;;;;;;;22.73;15.20;;;;;;;17.03;79.50;99400.63;5082942;28;20283;-80
2023/08/29 07:30:15;;;;;;;21.70;13.68;;;;;;;17.02;78.80;99407.28;5083408;28;20481;-83
2023/08/29 07:32:42;;;;;;;21.80;14.25;;;;;;;17.15;78.69;99403.63;5082951;28;20504;-85
2023/08/29 07:35:08;;;;;;;20.67;15.23;;;;;;;17.18;78.65;99407.69;5081191;28;20121;-82
2023/08/29 07:37:33;;;;;;;22.75;15.77;;;;;;;17.20;78.16;99412.88;5083420;28;20024;-78
2023/08/29 07:39:59;;;;;;;19.55;13.40;;;;;;;17.22;78.72;99410.59;5082601;28;20477;-81
2023/08/29 07:42:24;;;;;;;21.20;13.13;;;;;;;17.31;77.73;99414.19;5082245;28;20168;-82
2023/08/29 07:44:49;;;;;;;22.33;14.67;;;;;;;17.38;77.44;99411.81;5090599;28;20046;-81
2023/08/29 07:47:14;;;;;;;24.00;14.70;;;;;;;17.36;77.36;99410.50;5090337;28;20252;-82
2023/08/29 07:49:40;;;;;;;23.27;14.73;;;;;;;17.38;77.57;99417.31;5083549;28;20300;-82
2023/08/29 07:52:05;;;;;;;26.42;14.35;;;;;;;17.42;77.54;99413.91;5083613;28;20881;-83
2023/08/29 07:54:30;;;;;;;19.38;13.35;;;;;;;17.41;77.20;99412.28;5082467;28;20107;-82
2023/08/29 07:56:56;;;;;;;20.47;14.00;;;;;;;17.42;77.09;99417.47;5081908;28;20032;-82
2023/08/29 07:59:22;;;;;;;17.10;12.03;;;;;;;17.38;77.52;99417.31;5083406;28;20280;-82
2023/08/29 08:01:48;;;;;;;20.65;14.38;;;;;;;17.48;77.37;99412.63;5083480;28;20286;-82
2023/08/29 08:04:13;;;;;;;17.45;11.48;;;;;;;17.48;77.36;99420.91;5082708;28;20485;-82
2023/08/29 08:06:39;;;;;;;24.63;13.98;;;;;;;17.44;77.33;99423.47;5083318;28;20138;-86
2023/08/29 08:09:05;;;;;;;18.48;12.55;;;;;;;17.49;77.65;99423.31;5083151;28;20115;-84
2023/08/29 08:11:31;;;;;;;18.30;12.38;;;;;;;17.48;78.03;99437.44;5084147;28;20119;-84
2023/08/29 08:13:56;;;;;;;19.48;11.13;;;;;;;17.55;77.64;99431.47;5087500;28;20126;-88
2023/08/29 08:16:21;;;;;;;23.48;13.95;;;;;;;17.59;77.36;99432.44;5093256;28;20046;-85
2023/08/29 08:18:47;;;;;;;20.10;12.68;;;;;;;17.65;77.31;99427.59;5092238;28;20020;-87
2023/08/29 08:21:12;;;;;;;17.92;10.75;;;;;;;17.68;77.49;99440.72;5085180;28;20032;-85
2023/08/29 08:23:37;;;;;;;19.73;12.40;;;;;;;17.72;76.92;99434.25;5081904;28;20044;-73
2023/08/29 08:26:04;;;;;;;21.80;15.20;;;;;;;17.76;76.89;99437.16;5081559;28;20623;-74
2023/08/29 08:28:29;;;;;;;20.65;13.02;;;;;;;17.75;77.52;99438.31;5082932;28;20265;-74
2023/08/29 08:30:54;;;;;;;25.58;13.07;;;;;;;17.83;77.48;99437.53;5085859;28;20072;-75
2023/08/29 08:33:19;;;;;;;18.40;12.60;;;;;;;17.83;77.67;99437.53;5085543;28;20063;-73
2023/08/29 08:35:45;;;;;;;22.55;12.73;;;;;;;17.90;77.51;99437.03;5085097;28;20311;-72
2023/08/29 08:38:10;;;;;;;19.03;13.20;;;;;;;17.96;77.40;99444.00;5085308;28;20542;-73
2023/08/29 08:40:39;;;;;;;20.23;12.73;;;;;;;18.00;77.01;99446.13;5085950;28;21154;-73
2023/08/29 08:43:05;;;;;;;22.92;13.13;;;;;;;18.03;76.87;99446.28;5085228;28;20284;-73
2023/08/29 08:45:31;;;;;;;24.00;15.90;;;;;;;18.04;76.53;99450.66;5082848;28;20474;-74
2023/08/29 08:47:58;;;;;;;22.20;13.98;;;;;;;18.07;76.96;99447.28;5085113;28;20178;-73
2023/08/29 08:50:24;;;;;;;25.17;15.18;;;;;;;18.13;76.38;99453.44;5085155;28;20030;-74
2023/08/29 08:52:51;;;;;;;21.58;13.98;;;;;;;18.15;76.26;99453.94;5085155;28;20550;-74
2023/08/29 08:55:17;;;;;;;24.48;15.13;;;;;;;18.19;76.79;99454.13;5083555;28;20059;-74
2023/08/29 08:57:43;;;;;;;24.33;14.85;;;;;;;18.25;77.09;99458.34;5085253;28;20032;-76
2023/08/29 09:00:08;;;;;;;20.15;14.63;;;;;;;18.31;76.25;99448.75;5085308;28;20116;-77
2023/08/29 09:02:37;;;;;;;21.08;13.52;;;;;;;18.38;75.78;99450.22;5085167;28;20477;-75
2023/08/29 09:05:03;;;;;;;23.80;13.82;;;;;;;18.36;75.66;99446.97;5084544;28;20040;-75
2023/08/29 09:07:28;;;;;;;20.67;13.50;;;;;;;18.40;75.75;99447.94;5085054;28;20044;-75
2023/08/29 09:10:15;;;;;;;20.60;14.18;;;;;;;18.41;75.64;99450.38;5085086;28;20103;-75
2023/08/29 09:12:51;;;;;;;20.77;14.40;;;;;;;18.40;75.67;99451.53;5084436;28;20407;-74
2023/08/29 09:15:19;;;;;;;22.40;12.88;;;;;;;18.54;75.61;99454.13;5084601;28;20031;-75
2023/08/29 09:17:49;;;;;;;16.73;11.63;;;;;;;18.55;75.76;99454.91;5084521;28;20059;-75
2023/08/29 09:20:14;;;;;;;21.08;12.20;;;;;;;18.62;75.13;99437.84;5083963;28;20500;-75
2023/08/29 09:22:44;;;;;;;17.73;12.43;;;;;;;18.66;74.86;99444.34;5084755;28;20028;-73
2023/08/29 09:25:11;;;;;;;18.98;12.85;;;;;;;18.66;75.13;99439.63;5084007;28;20036;-74
2023/08/29 09:27:47;;;;;;;24.88;12.85;;;;;;;18.65;74.86;99442.75;5083093;28;20040;-74
2023/08/29 09:30:15;;;;;;;21.73;13.48;;;;;;;18.73;74.54;99444.63;5084067;28;20750;-75
2023/08/29 09:32:48;;;;;;;17.63;12.48;;;;;;;18.80;74.00;99441.38;5084712;28;20055;-76
2023/08/29 09:35:16;;;;;;;17.15;11.70;;;;;;;18.84;74.17;99444.28;5083789;28;20039;-75
2023/08/29 09:37:46;;;;;;;19.73;11.18;;;;;;;18.85;73.86;99451.47;5083532;28;20070;-74
2023/08/29 09:40:16;;;;;;;17.33;11.20;;;;;;;18.91;73.33;99450.16;5084131;28;20085;-76
2023/08/29 09:42:42;;;;;;;21.52;10.63;;;;;;;18.93;73.24;99447.03;5083832;28;20438;-73
2023/08/29 09:45:07;;;;;;;16.67;10.40;;;;;;;18.98;73.32;99450.44;5082305;28;20036;-75
2023/08/29 09:47:33;;;;;;;15.25;9.52;;;;;;;19.03;73.21;99457.75;5084288;28;20713;-75
2023/08/29 09:49:58;;;;;;;17.02;10.70;;;;;;;19.06;73.10;99451.53;5084152;28;20397;-73
2023/08/29 09:52:24;;;;;;;16.00;9.55;;;;;;;19.05;72.84;99449.94;5084428;28;20161;-72
2023/08/29 09:54:51;;;;;;;15.55;12.20;;;;;;;19.06;72.47;99451.53;5083465;28;20156;-73
2023/08/29 09:57:19;;;;;;;16.48;10.20;;;;;;;19.05;71.97;99447.19;5084566;28;20043;-75
2023/08/29 09:59:45;;;;;;;17.45;10.27;;;;;;;19.11;71.98;99439.50;5084381;28;20425;-75
2023/08/29 10:02:12;;;;;;;13.98;9.50;;;;;;;19.11;71.76;99443.09;5084290;28;20997;-72
2023/08/29 10:04:46;;;;;;;14.55;10.02;;;;;;;19.13;71.21;99440.00;5083625;28;20089;-74
2023/08/29 10:07:18;;;;;;;14.48;8.95;;;;;;;19.20;71.74;99434.78;5083437;28;20144;-75
2023/08/29 10:09:43;;;;;;;16.35;10.00;;;;;;;19.22;71.42;99432.50;5083820;28;20127;-73
2023/08/29 10:12:10;;;;;;;13.23;9.02;;;;;;;19.23;70.03;99436.91;5083776;28;20042;-73
2023/08/29 10:14:36;;;;;;;17.67;9.38;;;;;;;19.28;70.14;99429.56;5083579;28;20047;-73
2023/08/29 10:17:02;;;;;;;14.98;8.40;;;;;;;19.29;70.38;99429.22;5084187;28;20043;-77
2023/08/29 10:19:29;;;;;;;11.05;7.40;;;;;;;19.28;69.58;99424.84;5083865;28;20032;-74
2023/08/29 10:21:55;;;;;;;17.30;9.75;;;;;;;19.31;69.33;99432.47;5082491;28;20098;-74
2023/08/29 10:24:21;;;;;;;12.20;8.25;;;;;;;19.35;69.88;99416.84;5083157;28;20480;-75
2023/08/29 10:26:49;;;;;;;13.90;8.20;;;;;;;19.42;69.73;99423.81;5083806;28;20088;-74
2023/08/29 10:29:14;;;;;;;13.68;8.32;;;;;;;19.48;69.68;99423.28;5085980;28;20023;-75
2023/08/29 10:31:40;;;;;;;10.35;6.93;;;;;;;19.54;69.34;99418.38;5086902;28;20032;-72
2023/08/29 10:34:06;;;;;;;13.95;8.98;;;;;;;19.58;69.32;99421.28;5086264;28;20035;-81
2023/08/29 10:36:32;;;;;;;11.68;8.27;;;;;;;19.55;68.98;99422.75;5087908;28;20098;-80
2023/08/29 10:39:00;;;;;;;14.30;7.90;;;;;;;19.55;68.67;99421.94;5087187;28;20040;-80
2023/08/29 10:41:25;;;;;;;13.77;9.10;;;;;;;19.50;68.18;99422.13;5087325;28;20085;-79
2023/08/29 10:44:42;;;;;;;14.90;8.52;;;;;;;19.55;68.34;99424.69;5084780;28;20036;-74
2023/08/29 10:47:19;;;;;;;12.82;7.53;;;;;;;19.59;67.85;99422.88;5059184;28;20113;-74
2023/08/29 10:49:46;;;;;;;11.20;8.23;;;;;;;19.66;67.48;99416.84;5083516;28;20089;-73
2023/08/29 10:52:13;;;;;;;12.98;8.85;;;;;;;19.71;68.09;99428.50;5083203;28;20028;-73
2023/08/29 10:54:39;;;;;;;14.80;8.30;;;;;;;19.75;67.62;99419.56;5082680;28;20487;-73
2023/08/29 10:57:29;;;;;;;12.07;7.93;;;;;;;19.73;67.55;99411.56;5082853;28;20370;-73
2023/08/29 10:59:55;;;;;;;12.65;8.15;;;;;;;19.73;66.93;99416.31;5083415;28;20972;-74
2023/08/29 11:02:31;;;;;;;16.40;9.25;;;;;;;19.73;66.78;99410.78;5083583;28;20035;-74
2023/08/29 11:05:03;;;;;;;15.70;8.63;;;;;;;19.68;66.91;99409.84;5082689;28;20031;-74
2023/08/29 11:07:28;;;;;;;10.52;6.95;;;;;;;19.66;66.83;99409.34;5082933;28;20282;-73
2023/08/29 11:10:12;;;;;;;11.93;6.43;;;;;;;19.61;66.31;99401.25;5083219;28;20047;-74
2023/08/29 11:13:06;;;;;;;11.07;5.05;;;;;;;19.57;65.63;99403.88;5083144;28;20101;-73
2023/08/29 11:15:47;;;;;;;7.93;4.75;;;;;;;19.61;65.37;99404.00;5082373;28;20036;-74
2023/08/29 11:18:21;;;;;;;7.80;4.25;;;;;;;19.64;65.92;99402.53;5082796;28;20501;-73